Coopers Mills, Maine
Current Conditions -  °F | °C
As of 9:53 PM on Monday 26 Jan 2015 (Local Time) from KAUG Reporting Station
Broken Clouds Broken Clouds  
Wind Chill: -2°   Ceiling: 11000
Heat Index: 12°   Visibility: 10mi
Dew Point: -5°   Wind: 12mph
Humidity: 46%   Direction: 30°NNE
Pressure: 30.17"   Gusts: NA
Location:  44.26°N, 69.55°W
Report Text: KAUG 270253Z AUTO 03010KT 10SM BKN110 M11/M21 A3017 RMK AO2 SLP225 T11111206 58013
Loading
Personal Weather Stations






























Interactive Weather Map New forecast layout! Learn more

10-Day Weather Forecast

Advertisements
Track Severe Weather on mobile